Terminal Aerodrome Forecast
Issued by NWS

Home | Current Version | Previous Version | Text Only | Print | Product List | Glossary On
Versions: 1 2 3 4 5 6 7 8 9 10 11 12
029
FTPA31 PHFO 011723
TAFHJH
TAF
PHJH 011723Z 0118/0218 07011KT P6SM SCT025 SCT045
     FM011900 04015G25KT P6SM SCT025 SCT045
     FM020600 07011KT P6SM SCT025 SCT045
      AMD NOT SKED AFT 020400=

USA.gov is the U.S. government's official web portal to all federal, state and local government web resources and services.